sensor_id;sensor_type;location;lat;lon;timestamp;noise_LAeq;noise_LA_min;noise_LA_max;noise_LA01;noise_LA95
18377;Laerm;9315;52.624;13.544;2024-03-17T00:01:11;63.28;38.57;77.29;;
18377;Laerm;9315;52.624;13.544;2024-03-17T00:03:37;55.11;36.55;73.35;;
18377;Laerm;9315;52.624;13.544;2024-03-17T00:06:04;40.86;35.46;51.82;;
18377;Laerm;9315;52.624;13.544;2024-03-17T00:08:30;55.53;36.01;71.47;;
18377;Laerm;9315;52.624;13.544;2024-03-17T00:10:56;57.28;35.88;70.40;;
18377;Laerm;9315;52.624;13.544;2024-03-17T00:13:25;55.62;35.39;71.92;;
18377;Laerm;9315;52.624;13.544;2024-03-17T00:15:52;62.26;37.18;78.38;;
18377;Laerm;9315;52.624;13.544;2024-03-17T00:18:19;55.06;35.48;71.32;;
18377;Laerm;9315;52.624;13.544;2024-03-17T00:20:45;56.36;34.47;76.20;;
18377;Laerm;9315;52.624;13.544;2024-03-17T00:23:12;38.72;34.75;45.83;;
18377;Laerm;9315;52.624;13.544;2024-03-17T00:25:39;58.64;37.59;78.84;;
18377;Laerm;9315;52.624;13.544;2024-03-17T00:28:06;52.87;36.25;70.32;;
18377;Laerm;9315;52.624;13.544;2024-03-17T00:30:32;58.44;37.45;73.69;;
18377;Laerm;9315;52.624;13.544;2024-03-17T00:32:59;61.77;38.07;78.12;;
18377;Laerm;9315;52.624;13.544;2024-03-17T00:35:26;40.68;37.09;49.28;;
18377;Laerm;9315;52.624;13.544;2024-03-17T00:37:52;58.96;36.07;80.62;;
18377;Laerm;9315;52.624;13.544;2024-03-17T00:40:20;50.80;34.53;68.83;;
18377;Laerm;9315;52.624;13.544;2024-03-17T00:42:47;40.90;36.02;48.83;;
18377;Laerm;9315;52.624;13.544;2024-03-17T00:45:15;52.33;35.40;67.46;;
18377;Laerm;9315;52.624;13.544;2024-03-17T00:47:41;39.23;34.81;50.72;;
18377;Laerm;9315;52.624;13.544;2024-03-17T00:50:08;55.54;37.39;69.89;;
18377;Laerm;9315;52.624;13.544;2024-03-17T00:52:37;58.77;37.44;73.02;;
18377;Laerm;9315;52.624;13.544;2024-03-17T00:55:04;50.81;35.45;65.32;;
18377;Laerm;9315;52.624;13.544;2024-03-17T00:57:30;38.67;35.24;44.06;;
18377;Laerm;9315;52.624;13.544;2024-03-17T00:59:56;39.24;35.14;47.96;;
18377;Laerm;9315;52.624;13.544;2024-03-17T01:02:22;55.53;35.98;74.60;;
18377;Laerm;9315;52.624;13.544;2024-03-17T01:04:49;39.79;35.61;46.00;;
18377;Laerm;9315;52.624;13.544;2024-03-17T01:07:15;40.30;36.75;44.41;;
18377;Laerm;9315;52.624;13.544;2024-03-17T01:09:41;39.66;35.41;47.76;;
18377;Laerm;9315;52.624;13.544;2024-03-17T01:12:07;60.37;36.85;74.33;;
18377;Laerm;9315;52.624;13.544;2024-03-17T01:14:33;50.19;35.76;66.90;;
18377;Laerm;9315;52.624;13.544;2024-03-17T01:17:01;50.63;33.29;68.10;;
18377;Laerm;9315;52.624;13.544;2024-03-17T01:19:31;38.20;34.38;47.70;;
18377;Laerm;9315;52.624;13.544;2024-03-17T01:22:00;54.49;34.74;72.02;;
18377;Laerm;9315;52.624;13.544;2024-03-17T01:24:27;59.30;34.41;74.06;;
18377;Laerm;9315;52.624;13.544;2024-03-17T01:27:01;55.90;33.82;73.13;;
18377;Laerm;9315;52.624;13.544;2024-03-17T01:29:27;60.41;35.83;75.90;;
18377;Laerm;9315;52.624;13.544;2024-03-17T01:31:54;57.83;34.31;75.82;;
18377;Laerm;9315;52.624;13.544;2024-03-17T01:34:22;60.72;35.22;77.54;;
18377;Laerm;9315;52.624;13.544;2024-03-17T01:36:48;46.49;35.25;65.43;;
18377;Laerm;9315;52.624;13.544;2024-03-17T01:39:14;53.36;35.85;68.56;;
18377;Laerm;9315;52.624;13.544;2024-03-17T01:41:42;60.61;35.49;78.80;;
18377;Laerm;9315;52.624;13.544;2024-03-17T01:44:30;56.58;35.18;73.98;;
18377;Laerm;9315;52.624;13.544;2024-03-17T01:46:57;39.21;35.23;49.74;;
18377;Laerm;9315;52.624;13.544;2024-03-17T01:49:25;54.92;32.93;73.15;;
18377;Laerm;9315;52.624;13.544;2024-03-17T01:51:53;53.84;34.80;70.40;;
18377;Laerm;9315;52.624;13.544;2024-03-17T01:54:20;38.06;34.87;43.90;;
18377;Laerm;9315;52.624;13.544;2024-03-17T01:56:47;38.54;33.33;51.83;;
18377;Laerm;9315;52.624;13.544;2024-03-17T01:59:14;52.89;33.64;71.14;;
18377;Laerm;9315;52.624;13.544;2024-03-17T02:01:40;37.90;34.07;45.62;;
18377;Laerm;9315;52.624;13.544;2024-03-17T02:04:06;38.68;34.14;48.59;;
18377;Laerm;9315;52.624;13.544;2024-03-17T02:06:33;60.05;35.24;76.06;;
18377;Laerm;9315;52.624;13.544;2024-03-17T02:08:59;51.54;35.18;66.61;;
18377;Laerm;9315;52.624;13.544;2024-03-17T02:11:30;54.87;34.25;71.85;;
18377;Laerm;9315;52.624;13.544;2024-03-17T02:13:58;38.62;33.72;49.87;;
18377;Laerm;9315;52.624;13.544;2024-03-17T02:16:25;40.71;34.57;53.93;;
18377;Laerm;9315;52.624;13.544;2024-03-17T02:18:58;53.71;35.25;69.92;;
18377;Laerm;9315;52.624;13.544;2024-03-17T02:21:27;55.89;35.48;73.96;;
18377;Laerm;9315;52.624;13.544;2024-03-17T02:23:54;52.78;34.55;69.32;;
18377;Laerm;9315;52.624;13.544;2024-03-17T02:26:23;47.26;35.12;66.76;;
18377;Laerm;9315;52.624;13.544;2024-03-17T02:28:50;38.36;34.29;43.61;;
18377;Laerm;9315;52.624;13.544;2024-03-17T02:31:17;58.70;36.51;74.78;;
18377;Laerm;9315;52.624;13.544;2024-03-17T02:33:45;54.62;36.89;69.87;;
18377;Laerm;9315;52.624;13.544;2024-03-17T02:36:12;60.97;35.59;78.91;;
18377;Laerm;9315;52.624;13.544;2024-03-17T02:38:41;58.29;36.07;73.85;;
18377;Laerm;9315;52.624;13.544;2024-03-17T02:41:27;41.68;34.92;60.10;;
18377;Laerm;9315;52.624;13.544;2024-03-17T02:43:56;39.84;35.53;49.69;;
18377;Laerm;9315;52.624;13.544;2024-03-17T02:46:22;58.15;35.38;74.00;;
18377;Laerm;9315;52.624;13.544;2024-03-17T02:48:52;42.13;34.61;59.94;;
18377;Laerm;9315;52.624;13.544;2024-03-17T02:51:21;54.79;34.58;71.75;;
18377;Laerm;9315;52.624;13.544;2024-03-17T02:53:49;46.73;34.41;68.06;;
18377;Laerm;9315;52.624;13.544;2024-03-17T02:56:17;57.91;34.89;74.14;;
18377;Laerm;9315;52.624;13.544;2024-03-17T02:58:48;46.52;34.80;62.18;;
18377;Laerm;9315;52.624;13.544;2024-03-17T03:01:15;55.61;35.63;71.59;;
18377;Laerm;9315;52.624;13.544;2024-03-17T03:03:42;39.21;33.96;46.70;;
18377;Laerm;9315;52.624;13.544;2024-03-17T03:06:09;58.59;35.93;74.03;;
18377;Laerm;9315;52.624;13.544;2024-03-17T03:08:41;51.78;34.07;68.34;;
18377;Laerm;9315;52.624;13.544;2024-03-17T03:11:11;54.87;36.26;71.40;;
18377;Laerm;9315;52.624;13.544;2024-03-17T03:13:42;59.99;35.19;79.50;;
18377;Laerm;9315;52.624;13.544;2024-03-17T03:16:12;40.20;34.96;51.04;;
18377;Laerm;9315;52.624;13.544;2024-03-17T03:18:40;56.78;33.72;74.25;;
18377;Laerm;9315;52.624;13.544;2024-03-17T03:21:08;54.46;34.69;71.38;;
18377;Laerm;9315;52.624;13.544;2024-03-17T03:23:34;59.19;36.76;74.26;;
18377;Laerm;9315;52.624;13.544;2024-03-17T03:26:02;52.43;34.50;69.93;;
18377;Laerm;9315;52.624;13.544;2024-03-17T03:28:33;53.65;34.50;72.03;;
18377;Laerm;9315;52.624;13.544;2024-03-17T03:31:00;53.40;34.30;72.37;;
18377;Laerm;9315;52.624;13.544;2024-03-17T03:33:26;60.43;38.04;74.14;;
18377;Laerm;9315;52.624;13.544;2024-03-17T03:35:53;55.97;34.60;72.36;;
18377;Laerm;9315;52.624;13.544;2024-03-17T03:38:22;59.20;33.59;73.61;;
18377;Laerm;9315;52.624;13.544;2024-03-17T03:40:49;48.24;35.76;61.35;;
18377;Laerm;9315;52.624;13.544;2024-03-17T03:43:15;63.50;38.41;77.82;;
18377;Laerm;9315;52.624;13.544;2024-03-17T03:45:42;58.11;35.62;71.88;;
18377;Laerm;9315;52.624;13.544;2024-03-17T03:48:09;58.69;35.53;78.50;;
18377;Laerm;9315;52.624;13.544;2024-03-17T03:50:37;63.46;33.62;81.74;;
18377;Laerm;9315;52.624;13.544;2024-03-17T03:53:04;55.69;34.02;68.94;;
18377;Laerm;9315;52.624;13.544;2024-03-17T03:55:34;53.88;34.99;71.07;;
18377;Laerm;9315;52.624;13.544;2024-03-17T03:58:00;54.60;36.04;71.89;;
18377;Laerm;9315;52.624;13.544;2024-03-17T04:00:26;59.73;34.35;74.42;;
18377;Laerm;9315;52.624;13.544;2024-03-17T04:02:55;52.53;35.11;69.71;;
18377;Laerm;9315;52.624;13.544;2024-03-17T04:05:22;57.49;34.33;75.67;;
18377;Laerm;9315;52.624;13.544;2024-03-17T04:07:51;62.01;36.11;76.65;;
18377;Laerm;9315;52.624;13.544;2024-03-17T04:10:17;58.41;37.62;72.57;;
18377;Laerm;9315;52.624;13.544;2024-03-17T04:12:46;63.25;36.63;76.38;;
18377;Laerm;9315;52.624;13.544;2024-03-17T04:15:13;60.53;37.47;77.82;;
18377;Laerm;9315;52.624;13.544;2024-03-17T04:17:40;60.93;38.19;72.77;;
18377;Laerm;9315;52.624;13.544;2024-03-17T04:20:07;56.13;38.88;72.48;;
18377;Laerm;9315;52.624;13.544;2024-03-17T04:22:35;61.70;39.73;75.17;;
18377;Laerm;9315;52.624;13.544;2024-03-17T04:25:04;60.77;38.24;74.88;;
18377;Laerm;9315;52.624;13.544;2024-03-17T04:27:32;58.95;40.99;71.92;;
18377;Laerm;9315;52.624;13.544;2024-03-17T04:30:00;55.02;38.81;71.71;;
18377;Laerm;9315;52.624;13.544;2024-03-17T04:32:27;59.69;39.56;72.29;;
18377;Laerm;9315;52.624;13.544;2024-03-17T04:34:54;58.35;40.69;75.14;;
18377;Laerm;9315;52.624;13.544;2024-03-17T04:37:21;62.75;41.24;76.32;;
18377;Laerm;9315;52.624;13.544;2024-03-17T04:39:48;58.38;40.11;72.03;;
18377;Laerm;9315;52.624;13.544;2024-03-17T04:42:16;61.12;40.68;73.88;;
18377;Laerm;9315;52.624;13.544;2024-03-17T04:44:47;59.86;39.43;76.72;;
18377;Laerm;9315;52.624;13.544;2024-03-17T04:47:14;57.32;39.13;70.86;;
18377;Laerm;9315;52.624;13.544;2024-03-17T04:49:43;60.22;40.07;74.13;;
18377;Laerm;9315;52.624;13.544;2024-03-17T04:52:12;61.78;37.63;78.79;;
18377;Laerm;9315;52.624;13.544;2024-03-17T04:54:38;57.97;37.72;77.72;;
18377;Laerm;9315;52.624;13.544;2024-03-17T04:57:07;50.55;38.18;66.57;;
18377;Laerm;9315;52.624;13.544;2024-03-17T04:59:35;61.72;39.39;75.97;;
18377;Laerm;9315;52.624;13.544;2024-03-17T05:02:04;59.64;38.77;75.69;;
18377;Laerm;9315;52.624;13.544;2024-03-17T05:04:31;59.98;38.97;75.09;;
18377;Laerm;9315;52.624;13.544;2024-03-17T05:06:57;53.86;39.12;68.69;;
18377;Laerm;9315;52.624;13.544;2024-03-17T05:09:24;61.19;40.52;73.84;;
18377;Laerm;9315;52.624;13.544;2024-03-17T05:11:50;58.16;39.07;72.39;;
18377;Laerm;9315;52.624;13.544;2024-03-17T05:14:20;62.52;41.13;83.29;;
18377;Laerm;9315;52.624;13.544;2024-03-17T05:16:50;59.40;40.90;74.44;;
18377;Laerm;9315;52.624;13.544;2024-03-17T05:19:23;62.19;42.30;79.61;;
18377;Laerm;9315;52.624;13.544;2024-03-17T05:21:50;62.61;42.20;75.27;;
18377;Laerm;9315;52.624;13.544;2024-03-17T05:24:18;63.43;42.16;75.44;;
18377;Laerm;9315;52.624;13.544;2024-03-17T05:26:45;58.30;41.04;75.43;;
18377;Laerm;9315;52.624;13.544;2024-03-17T05:29:12;65.09;43.07;79.53;;
18377;Laerm;9315;52.624;13.544;2024-03-17T05:31:39;65.13;40.95;80.58;;
18377;Laerm;9315;52.624;13.544;2024-03-17T05:34:08;60.61;40.22;79.58;;
18377;Laerm;9315;52.624;13.544;2024-03-17T05:36:37;58.52;41.17;74.42;;
18377;Laerm;9315;52.624;13.544;2024-03-17T05:39:03;61.35;41.01;76.24;;
18377;Laerm;9315;52.624;13.544;2024-03-17T05:41:29;64.89;41.63;75.92;;
18377;Laerm;9315;52.624;13.544;2024-03-17T05:43:56;63.56;41.24;78.30;;
18377;Laerm;9315;52.624;13.544;2024-03-17T05:46:26;61.20;42.30;77.97;;
18377;Laerm;9315;52.624;13.544;2024-03-17T05:48:52;62.58;40.61;76.13;;
18377;Laerm;9315;52.624;13.544;2024-03-17T05:51:19;65.20;41.96;78.03;;
18377;Laerm;9315;52.624;13.544;2024-03-17T05:53:45;63.26;42.13;75.30;;
18377;Laerm;9315;52.624;13.544;2024-03-17T05:56:13;57.59;39.82;72.94;;
18377;Laerm;9315;52.624;13.544;2024-03-17T05:58:42;63.22;40.19;76.70;;
18377;Laerm;9315;52.624;13.544;2024-03-17T06:01:10;62.71;40.89;74.82;;
18377;Laerm;9315;52.624;13.544;2024-03-17T06:03:38;59.73;41.60;73.32;;
18377;Laerm;9315;52.624;13.544;2024-03-17T06:06:06;62.08;40.03;74.60;;
18377;Laerm;9315;52.624;13.544;2024-03-17T06:08:37;63.47;39.96;77.04;;
18377;Laerm;9315;52.624;13.544;2024-03-17T06:11:06;50.52;39.33;68.61;;
18377;Laerm;9315;52.624;13.544;2024-03-17T06:13:34;63.79;40.03;76.82;;
18377;Laerm;9315;52.624;13.544;2024-03-17T06:16:03;59.41;39.30;73.91;;
18377;Laerm;9315;52.624;13.544;2024-03-17T06:18:31;57.36;38.77;72.98;;
18377;Laerm;9315;52.624;13.544;2024-03-17T06:20:58;61.58;39.17;74.42;;
18377;Laerm;9315;52.624;13.544;2024-03-17T06:23:25;65.55;43.10;78.92;;
18377;Laerm;9315;52.624;13.544;2024-03-17T06:25:56;65.14;40.70;82.81;;
18377;Laerm;9315;52.624;13.544;2024-03-17T06:28:24;67.18;38.57;83.50;;
18377;Laerm;9315;52.624;13.544;2024-03-17T06:30:58;57.45;39.30;72.38;;
18377;Laerm;9315;52.624;13.544;2024-03-17T06:33:26;63.80;41.18;76.45;;
18377;Laerm;9315;52.624;13.544;2024-03-17T06:35:54;60.80;39.94;74.67;;
18377;Laerm;9315;52.624;13.544;2024-03-17T06:38:23;64.34;39.77;77.67;;
18377;Laerm;9315;52.624;13.544;2024-03-17T06:40:53;64.14;38.33;78.03;;
18377;Laerm;9315;52.624;13.544;2024-03-17T06:43:24;63.00;40.81;77.25;;
18377;Laerm;9315;52.624;13.544;2024-03-17T06:48:22;65.49;39.79;78.45;;
18377;Laerm;9315;52.624;13.544;2024-03-17T06:50:48;62.19;41.12;75.19;;
18377;Laerm;9315;52.624;13.544;2024-03-17T06:53:15;66.28;41.62;84.43;;
18377;Laerm;9315;52.624;13.544;2024-03-17T06:55:41;63.85;38.45;76.57;;
18377;Laerm;9315;52.624;13.544;2024-03-17T06:58:07;63.67;39.87;79.52;;
18377;Laerm;9315;52.624;13.544;2024-03-17T07:00:34;65.96;39.33;82.26;;
18377;Laerm;9315;52.624;13.544;2024-03-17T07:03:01;66.42;41.21;79.98;;
18377;Laerm;9315;52.624;13.544;2024-03-17T07:05:28;61.32;38.84;75.80;;
18377;Laerm;9315;52.624;13.544;2024-03-17T07:07:55;58.70;39.14;76.11;;
18377;Laerm;9315;52.624;13.544;2024-03-17T07:10:22;63.15;39.02;77.90;;
18377;Laerm;9315;52.624;13.544;2024-03-17T07:12:49;64.88;41.07;75.39;;
18377;Laerm;9315;52.624;13.544;2024-03-17T07:15:15;64.74;40.26;76.06;;
18377;Laerm;9315;52.624;13.544;2024-03-17T07:17:41;63.70;41.21;75.86;;
18377;Laerm;9315;52.624;13.544;2024-03-17T07:20:07;60.42;37.90;74.13;;
18377;Laerm;9315;52.624;13.544;2024-03-17T07:22:35;65.73;43.23;77.00;;
18377;Laerm;9315;52.624;13.544;2024-03-17T07:25:01;64.18;37.53;76.37;;
18377;Laerm;9315;52.624;13.544;2024-03-17T07:27:28;66.17;40.22;79.16;;
18377;Laerm;9315;52.624;13.544;2024-03-17T07:29:54;61.65;39.15;72.91;;
18377;Laerm;9315;52.624;13.544;2024-03-17T07:32:21;60.80;37.42;73.50;;
18377;Laerm;9315;52.624;13.544;2024-03-17T07:34:49;60.58;40.17;74.17;;
18377;Laerm;9315;52.624;13.544;2024-03-17T07:37:19;64.96;38.94;79.50;;
18377;Laerm;9315;52.624;13.544;2024-03-17T07:39:45;64.39;42.92;75.61;;
18377;Laerm;9315;52.624;13.544;2024-03-17T07:42:15;63.25;38.15;73.84;;
18377;Laerm;9315;52.624;13.544;2024-03-17T07:44:44;59.32;38.06;74.48;;
18377;Laerm;9315;52.624;13.544;2024-03-17T07:47:10;66.27;42.36;77.24;;
18377;Laerm;9315;52.624;13.544;2024-03-17T07:49:37;66.24;41.10;78.41;;
18377;Laerm;9315;52.624;13.544;2024-03-17T07:52:05;66.65;39.14;76.87;;
18377;Laerm;9315;52.624;13.544;2024-03-17T07:54:32;66.75;40.68;76.68;;
18377;Laerm;9315;52.624;13.544;2024-03-17T07:56:58;65.83;41.14;82.49;;
18377;Laerm;9315;52.624;13.544;2024-03-17T07:59:24;65.59;41.47;77.78;;
18377;Laerm;9315;52.624;13.544;2024-03-17T08:01:50;65.68;39.49;77.72;;
18377;Laerm;9315;52.624;13.544;2024-03-17T08:04:17;66.31;41.91;76.47;;
18377;Laerm;9315;52.624;13.544;2024-03-17T08:06:43;63.66;40.01;74.79;;
18377;Laerm;9315;52.624;13.544;2024-03-17T08:09:10;66.03;42.24;75.43;;
18377;Laerm;9315;52.624;13.544;2024-03-17T08:11:36;65.03;40.90;76.02;;
18377;Laerm;9315;52.624;13.544;2024-03-17T08:14:03;65.79;41.85;77.64;;
18377;Laerm;9315;52.624;13.544;2024-03-17T08:16:29;67.76;42.93;78.86;;
18377;Laerm;9315;52.624;13.544;2024-03-17T08:18:57;67.01;41.65;78.17;;
18377;Laerm;9315;52.624;13.544;2024-03-17T08:21:23;68.19;44.54;76.32;;
18377;Laerm;9315;52.624;13.544;2024-03-17T08:23:50;66.75;39.35;77.44;;
18377;Laerm;9315;52.624;13.544;2024-03-17T08:26:17;67.08;44.62;79.43;;
18377;Laerm;9315;52.624;13.544;2024-03-17T08:28:44;66.66;41.94;76.51;;
18377;Laerm;9315;52.624;13.544;2024-03-17T08:31:12;65.32;41.27;75.33;;
18377;Laerm;9315;52.624;13.544;2024-03-17T08:33:38;67.81;44.25;78.09;;
18377;Laerm;9315;52.624;13.544;2024-03-17T08:36:07;68.72;42.25;79.37;;
18377;Laerm;9315;52.624;13.544;2024-03-17T08:38:35;67.82;46.93;76.79;;
18377;Laerm;9315;52.624;13.544;2024-03-17T08:41:08;65.94;40.56;75.96;;
18377;Laerm;9315;52.624;13.544;2024-03-17T08:43:36;67.83;47.44;77.73;;
18377;Laerm;9315;52.624;13.544;2024-03-17T08:46:06;68.61;45.00;76.17;;
18377;Laerm;9315;52.624;13.544;2024-03-17T08:48:38;67.53;44.89;76.94;;
18377;Laerm;9315;52.624;13.544;2024-03-17T08:51:07;67.19;41.61;76.50;;
18377;Laerm;9315;52.624;13.544;2024-03-17T08:53:34;66.93;42.36;78.56;;
18377;Laerm;9315;52.624;13.544;2024-03-17T08:56:03;67.32;43.09;76.40;;
18377;Laerm;9315;52.624;13.544;2024-03-17T08:58:29;68.45;45.03;78.19;;
18377;Laerm;9315;52.624;13.544;2024-03-17T09:00:55;69.59;43.51;78.04;;
18377;Laerm;9315;52.624;13.544;2024-03-17T09:03:22;67.48;45.83;76.40;;
18377;Laerm;9315;52.624;13.544;2024-03-17T09:05:48;68.85;50.33;76.55;;
18377;Laerm;9315;52.624;13.544;2024-03-17T09:08:23;66.51;38.55;75.24;;
18377;Laerm;9315;52.624;13.544;2024-03-17T09:10:52;67.51;46.51;77.76;;
18377;Laerm;9315;52.624;13.544;2024-03-17T09:13:24;67.09;41.31;75.45;;
18377;Laerm;9315;52.624;13.544;2024-03-17T09:15:57;67.84;44.35;77.22;;
18377;Laerm;9315;52.624;13.544;2024-03-17T09:18:30;67.67;46.20;76.69;;
18377;Laerm;9315;52.624;13.544;2024-03-17T09:21:07;69.08;44.75;78.85;;
18377;Laerm;9315;52.624;13.544;2024-03-17T09:23:36;68.65;50.03;76.34;;
18377;Laerm;9315;52.624;13.544;2024-03-17T09:26:09;68.02;43.65;77.73;;
18377;Laerm;9315;52.624;13.544;2024-03-17T09:28:37;68.21;42.60;79.21;;
18377;Laerm;9315;52.624;13.544;2024-03-17T09:31:04;68.71;43.60;78.26;;
18377;Laerm;9315;52.624;13.544;2024-03-17T09:33:35;68.19;38.27;76.04;;
18377;Laerm;9315;52.624;13.544;2024-03-17T09:36:08;66.31;41.63;76.21;;
18377;Laerm;9315;52.624;13.544;2024-03-17T09:38:37;67.01;41.97;74.70;;
18377;Laerm;9315;52.624;13.544;2024-03-17T09:41:06;69.48;51.07;75.97;;
18377;Laerm;9315;52.624;13.544;2024-03-17T09:43:35;68.37;40.85;76.85;;
18377;Laerm;9315;52.624;13.544;2024-03-17T09:46:04;66.63;39.38;77.62;;
18377;Laerm;9315;52.624;13.544;2024-03-17T09:48:31;68.15;48.45;78.00;;
18377;Laerm;9315;52.624;13.544;2024-03-17T09:51:00;69.03;51.46;77.39;;
18377;Laerm;9315;52.624;13.544;2024-03-17T09:53:34;67.62;43.98;75.66;;
18377;Laerm;9315;52.624;13.544;2024-03-17T09:56:23;66.74;41.37;76.85;;
18377;Laerm;9315;52.624;13.544;2024-03-17T09:58:52;66.16;41.69;76.25;;
18377;Laerm;9315;52.624;13.544;2024-03-17T10:01:18;66.56;45.86;76.71;;
18377;Laerm;9315;52.624;13.544;2024-03-17T10:03:52;68.70;45.67;77.60;;
18377;Laerm;9315;52.624;13.544;2024-03-17T10:06:23;66.77;36.78;76.03;;
18377;Laerm;9315;52.624;13.544;2024-03-17T10:08:54;69.05;42.13;78.48;;
18377;Laerm;9315;52.624;13.544;2024-03-17T10:11:33;67.25;40.48;76.63;;
18377;Laerm;9315;52.624;13.544;2024-03-17T10:14:08;67.54;44.19;75.10;;
18377;Laerm;9315;52.624;13.544;2024-03-17T10:16:37;68.19;45.64;77.37;;
18377;Laerm;9315;52.624;13.544;2024-03-17T10:19:23;69.19;45.31;77.11;;
18377;Laerm;9315;52.624;13.544;2024-03-17T10:21:58;68.58;39.91;78.97;;
18377;Laerm;9315;52.624;13.544;2024-03-17T10:24:27;70.35;47.06;80.51;;
18377;Laerm;9315;52.624;13.544;2024-03-17T10:26:59;68.25;42.96;77.15;;
18377;Laerm;9315;52.624;13.544;2024-03-17T10:29:34;68.25;40.05;77.89;;
18377;Laerm;9315;52.624;13.544;2024-03-17T10:32:14;67.94;47.36;77.47;;
18377;Laerm;9315;52.624;13.544;2024-03-17T10:34:42;68.28;44.79;80.16;;
18377;Laerm;9315;52.624;13.544;2024-03-17T10:37:20;68.47;44.27;76.72;;
18377;Laerm;9315;52.624;13.544;2024-03-17T10:39:53;67.84;40.97;81.11;;
18377;Laerm;9315;52.624;13.544;2024-03-17T10:42:28;68.43;45.97;75.21;;
18377;Laerm;9315;52.624;13.544;2024-03-17T10:44:55;68.90;44.94;77.08;;
18377;Laerm;9315;52.624;13.544;2024-03-17T10:47:26;67.56;46.88;76.95;;
18377;Laerm;9315;52.624;13.544;2024-03-17T10:49:55;68.18;43.01;75.97;;
18377;Laerm;9315;52.624;13.544;2024-03-17T10:52:23;70.25;51.08;80.99;;
18377;Laerm;9315;52.624;13.544;2024-03-17T10:54:56;65.79;45.04;76.14;;
18377;Laerm;9315;52.624;13.544;2024-03-17T11:00:07;68.12;43.57;76.18;;
18377;Laerm;9315;52.624;13.544;2024-03-17T11:02:43;68.49;49.40;76.19;;
18377;Laerm;9315;52.624;13.544;2024-03-17T11:05:28;66.42;43.56;78.03;;
18377;Laerm;9315;52.624;13.544;2024-03-17T11:08:01;68.95;49.40;76.58;;
18377;Laerm;9315;52.624;13.544;2024-03-17T11:10:36;67.15;42.15;75.56;;
18377;Laerm;9315;52.624;13.544;2024-03-17T11:13:05;66.18;44.52;75.87;;
18377;Laerm;9315;52.624;13.544;2024-03-17T11:15:35;66.71;45.29;75.13;;
18377;Laerm;9315;52.624;13.544;2024-03-17T11:20:41;67.14;40.03;77.16;;
18377;Laerm;9315;52.624;13.544;2024-03-17T11:23:08;69.51;42.80;88.14;;
18377;Laerm;9315;52.624;13.544;2024-03-17T11:25:40;67.87;46.42;78.20;;
18377;Laerm;9315;52.624;13.544;2024-03-17T11:28:09;67.93;45.64;77.45;;
18377;Laerm;9315;52.624;13.544;2024-03-17T11:30:49;69.14;46.77;76.56;;
18377;Laerm;9315;52.624;13.544;2024-03-17T11:39:02;69.69;43.39;77.31;;
18377;Laerm;9315;52.624;13.544;2024-03-17T11:41:41;75.27;44.17;97.96;;
18377;Laerm;9315;52.624;13.544;2024-03-17T11:47:02;68.14;41.90;78.48;;
18377;Laerm;9315;52.624;13.544;2024-03-17T11:49:41;67.87;45.51;77.67;;
18377;Laerm;9315;52.624;13.544;2024-03-17T11:52:16;69.17;43.15;79.98;;
18377;Laerm;9315;52.624;13.544;2024-03-17T11:54:46;68.68;44.21;76.98;;
18377;Laerm;9315;52.624;13.544;2024-03-17T11:57:24;69.44;49.66;78.74;;
18377;Laerm;9315;52.624;13.544;2024-03-17T11:59:53;67.80;44.39;75.59;;
18377;Laerm;9315;52.624;13.544;2024-03-17T12:02:30;69.32;46.19;77.73;;
18377;Laerm;9315;52.624;13.544;2024-03-17T12:05:00;67.38;44.01;74.79;;
18377;Laerm;9315;52.624;13.544;2024-03-17T12:07:27;68.96;47.84;77.20;;
18377;Laerm;9315;52.624;13.544;2024-03-17T12:09:56;71.27;54.92;84.90;;
18377;Laerm;9315;52.624;13.544;2024-03-17T12:12:26;68.06;45.42;75.10;;
18377;Laerm;9315;52.624;13.544;2024-03-17T12:15:03;69.26;50.03;78.24;;
18377;Laerm;9315;52.624;13.544;2024-03-17T12:17:42;68.37;47.39;76.61;;
18377;Laerm;9315;52.624;13.544;2024-03-17T12:20:19;68.72;49.96;79.01;;
18377;Laerm;9315;52.624;13.544;2024-03-17T12:22:47;68.42;44.24;76.51;;
18377;Laerm;9315;52.624;13.544;2024-03-17T12:25:19;67.33;43.84;76.36;;
18377;Laerm;9315;52.624;13.544;2024-03-17T12:27:47;67.77;47.30;76.17;;
18377;Laerm;9315;52.624;13.544;2024-03-17T12:30:15;67.05;46.08;78.47;;
18377;Laerm;9315;52.624;13.544;2024-03-17T12:32:43;66.90;41.76;75.71;;
18377;Laerm;9315;52.624;13.544;2024-03-17T12:35:15;68.09;45.91;76.53;;
18377;Laerm;9315;52.624;13.544;2024-03-17T12:37:45;68.57;46.84;77.29;;
18377;Laerm;9315;52.624;13.544;2024-03-17T12:40:22;68.70;48.66;76.86;;
18377;Laerm;9315;52.624;13.544;2024-03-17T12:42:50;68.79;47.64;76.42;;
18377;Laerm;9315;52.624;13.544;2024-03-17T12:45:22;68.86;46.05;77.08;;
18377;Laerm;9315;52.624;13.544;2024-03-17T12:47:50;68.61;43.70;77.50;;
18377;Laerm;9315;52.624;13.544;2024-03-17T12:50:17;68.55;43.82;77.34;;
18377;Laerm;9315;52.624;13.544;2024-03-17T12:52:56;68.38;47.50;77.45;;
18377;Laerm;9315;52.624;13.544;2024-03-17T12:55:23;67.45;38.08;77.05;;
18377;Laerm;9315;52.624;13.544;2024-03-17T12:58:10;68.38;43.20;78.64;;
18377;Laerm;9315;52.624;13.544;2024-03-17T13:01:04;67.39;40.68;76.83;;
18377;Laerm;9315;52.624;13.544;2024-03-17T13:03:37;69.81;43.42;85.68;;
18377;Laerm;9315;52.624;13.544;2024-03-17T13:06:09;70.32;46.66;78.07;;
18377;Laerm;9315;52.624;13.544;2024-03-17T13:08:37;67.70;42.12;75.68;;
18377;Laerm;9315;52.624;13.544;2024-03-17T13:11:08;66.92;40.61;79.32;;
18377;Laerm;9315;52.624;13.544;2024-03-17T13:13:35;68.54;38.88;76.90;;
18377;Laerm;9315;52.624;13.544;2024-03-17T13:16:02;69.13;40.48;77.76;;
18377;Laerm;9315;52.624;13.544;2024-03-17T13:18:28;69.99;42.71;77.09;;
18377;Laerm;9315;52.624;13.544;2024-03-17T13:20:54;68.43;39.46;76.27;;
18377;Laerm;9315;52.624;13.544;2024-03-17T13:23:23;68.81;42.88;77.43;;
18377;Laerm;9315;52.624;13.544;2024-03-17T13:25:51;68.65;42.58;77.83;;
18377;Laerm;9315;52.624;13.544;2024-03-17T13:28:19;67.69;41.33;78.08;;
18377;Laerm;9315;52.624;13.544;2024-03-17T13:30:46;66.53;38.86;77.46;;
18377;Laerm;9315;52.624;13.544;2024-03-17T13:33:13;66.72;37.43;75.23;;
18377;Laerm;9315;52.624;13.544;2024-03-17T13:35:41;69.24;47.01;80.06;;
18377;Laerm;9315;52.624;13.544;2024-03-17T13:38:09;69.31;40.63;82.50;;
18377;Laerm;9315;52.624;13.544;2024-03-17T13:40:40;66.77;41.92;76.09;;
18377;Laerm;9315;52.624;13.544;2024-03-17T13:43:07;68.40;40.72;76.93;;
18377;Laerm;9315;52.624;13.544;2024-03-17T13:45:42;69.27;43.83;76.08;;
18377;Laerm;9315;52.624;13.544;2024-03-17T13:48:10;69.39;49.36;78.05;;
18377;Laerm;9315;52.624;13.544;2024-03-17T13:50:40;67.99;43.24;77.88;;
18377;Laerm;9315;52.624;13.544;2024-03-17T13:53:11;69.34;50.11;76.56;;
18377;Laerm;9315;52.624;13.544;2024-03-17T13:55:37;69.15;42.51;79.96;;
18377;Laerm;9315;52.624;13.544;2024-03-17T13:58:04;68.18;40.10;75.56;;
18377;Laerm;9315;52.624;13.544;2024-03-17T14:00:31;67.64;38.44;76.94;;
18377;Laerm;9315;52.624;13.544;2024-03-17T14:03:01;67.19;44.07;77.69;;
18377;Laerm;9315;52.624;13.544;2024-03-17T14:05:28;68.67;42.52;79.37;;
18377;Laerm;9315;52.624;13.544;2024-03-17T14:07:55;68.62;44.03;77.44;;
18377;Laerm;9315;52.624;13.544;2024-03-17T14:10:25;67.65;43.15;76.64;;